Time;durP1;ratioP1;P1;durP2;ratioP2;P2;SDS_P1;SDS_P2;PMS_P1;PMS_P2;Temp;Humidity;BMP_temperature;BMP_pressure;BME280_temperature;BME280_humidity;BME280_pressure;Samples;Min_cycle;Max_cycle;Signal;HPM_P1;HPM_P2
2022/10/23 00:00:17;;;;;;;6.80;3.25;;;;;;;-146.48;100.00;-16317.56;5322980;28;20478;-74
2022/10/23 00:02:52;;;;;;;8.98;2.58;;;;;;;-146.48;100.00;-16317.56;5323201;28;20467;-75
2022/10/23 00:05:24;;;;;;;10.18;2.83;;;;;;;-146.48;100.00;-16317.56;5323572;28;20103;-75
2022/10/23 00:07:58;;;;;;;6.00;2.65;;;;;;;-146.48;100.00;-16317.56;5322956;28;20026;-74
2022/10/23 00:10:29;;;;;;;7.15;2.95;;;;;;;-146.48;100.00;-16317.56;5323128;28;20024;-74
2022/10/23 00:13:01;;;;;;;9.65;2.50;;;;;;;-146.48;100.00;-16317.56;5324019;28;20045;-75
2022/10/23 00:15:35;;;;;;;7.03;2.65;;;;;;;-146.48;100.00;-16317.56;5322369;28;20047;-75
2022/10/23 00:18:06;;;;;;;6.85;2.53;;;;;;;-146.48;100.00;-16317.56;5327387;28;20036;-75
2022/10/23 00:20:37;;;;;;;12.60;2.75;;;;;;;-146.48;100.00;-16317.56;5326226;28;20375;-74
2022/10/23 00:23:09;;;;;;;10.32;3.75;;;;;;;-146.48;100.00;-16317.56;5327574;28;20378;-76
2022/10/23 00:25:40;;;;;;;6.50;2.40;;;;;;;-146.48;100.00;-16317.56;5327012;28;20027;-74
2022/10/23 00:28:12;;;;;;;5.90;2.33;;;;;;;-146.48;100.00;-16317.56;5326641;28;20047;-73
2022/10/23 00:30:43;;;;;;;8.50;3.33;;;;;;;-146.48;100.00;-16317.56;5327076;28;20394;-74
2022/10/23 00:33:14;;;;;;;7.35;2.65;;;;;;;-146.48;100.00;-16317.56;5327378;28;20027;-74
2022/10/23 00:35:46;;;;;;;7.03;2.75;;;;;;;-146.48;100.00;-16317.56;5326065;28;20058;-74
2022/10/23 00:38:17;;;;;;;7.28;2.95;;;;;;;-146.48;100.00;-16317.56;5327561;28;20451;-74
2022/10/23 00:40:49;;;;;;;6.85;2.70;;;;;;;-146.48;100.00;-16317.56;5326866;28;20050;-74
2022/10/23 00:43:24;;;;;;;5.93;2.42;;;;;;;-146.48;100.00;-16317.56;5326684;28;20032;-74
2022/10/23 00:45:56;;;;;;;7.18;2.90;;;;;;;-146.48;100.00;-16317.56;5326999;28;20031;-74
2022/10/23 00:48:28;;;;;;;9.18;3.38;;;;;;;-146.48;100.00;-16317.56;5326894;28;20023;-74
2022/10/23 00:50:59;;;;;;;8.30;3.13;;;;;;;-146.48;100.00;-16317.56;5326791;28;20023;-75
2022/10/23 00:53:30;;;;;;;6.45;2.70;;;;;;;-146.48;100.00;-16317.56;5326613;28;20032;-74
2022/10/23 00:56:02;;;;;;;12.13;2.90;;;;;;;-146.48;100.00;-16317.56;5326257;28;20027;-75
2022/10/23 00:58:33;;;;;;;11.15;3.50;;;;;;;-146.48;100.00;-16317.56;5326496;28;20034;-74
2022/10/23 01:01:19;;;;;;;8.55;2.95;;;;;;;-146.48;100.00;-16317.56;5327251;28;20039;-73
2022/10/23 01:03:51;;;;;;;5.47;2.42;;;;;;;-146.48;100.00;-16317.56;5325661;28;20031;-74
2022/10/23 01:06:36;;;;;;;6.80;2.60;;;;;;;-146.48;100.00;-16317.56;5326746;28;20140;-75
2022/10/23 01:09:40;;;;;;;6.05;2.85;;;;;;;-146.48;100.00;-16317.56;5327065;28;20023;-74
2022/10/23 01:12:41;;;;;;;6.75;2.63;;;;;;;-146.48;100.00;-16317.56;5302404;28;20050;-74
2022/10/23 01:15:22;;;;;;;5.57;2.22;;;;;;;-146.48;100.00;-16317.56;5326824;28;20036;-74
2022/10/23 01:18:03;;;;;;;8.13;2.70;;;;;;;-146.48;100.00;-16317.56;5325466;28;20055;-75
2022/10/23 01:21:07;;;;;;;5.88;2.65;;;;;;;-146.48;100.00;-16317.56;5326181;28;20023;-75
2022/10/23 01:24:07;;;;;;;5.95;2.20;;;;;;;-146.48;100.00;-16317.56;5300896;28;20036;-75
2022/10/23 01:27:01;;;;;;;5.45;2.70;;;;;;;-146.48;100.00;-16317.56;5325738;28;20032;-75
2022/10/23 01:29:43;;;;;;;7.35;2.30;;;;;;;-146.48;100.00;-16317.56;5325727;28;20031;-75
2022/10/23 01:32:24;;;;;;;5.60;2.40;;;;;;;-146.48;100.00;-16317.56;5325830;28;20028;-75
2022/10/23 01:35:21;;;;;;;6.15;2.75;;;;;;;-146.48;100.00;-16317.56;5325967;27;20030;-73
2022/10/23 01:38:02;;;;;;;8.60;2.65;;;;;;;-146.48;100.00;-16317.56;5295303;28;20363;-74
2022/10/23 01:40:47;;;;;;;5.47;2.00;;;;;;;-146.48;100.00;-16317.56;5325839;28;20076;-73
2022/10/23 01:43:25;;;;;;;7.18;2.15;;;;;;;-146.48;100.00;-16317.56;5326216;28;20028;-74
2022/10/23 01:46:01;;;;;;;6.25;2.72;;;;;;;-146.48;100.00;-16317.56;5325229;28;20387;-74
2022/10/23 01:48:35;;;;;;;5.55;2.15;;;;;;;-146.48;100.00;-16317.56;5325341;27;20031;-74
2022/10/23 01:51:10;;;;;;;5.28;2.13;;;;;;;-146.48;100.00;-16317.56;5326107;28;20521;-74
2022/10/23 01:53:45;;;;;;;8.00;2.42;;;;;;;-146.48;100.00;-16317.56;5324246;28;20030;-75
2022/10/23 01:56:20;;;;;;;6.15;2.08;;;;;;;-146.48;100.00;-16317.56;5325893;28;20470;-74
2022/10/23 01:58:54;;;;;;;7.50;2.63;;;;;;;-146.48;100.00;-16317.56;5325005;28;20085;-75
2022/10/23 02:01:31;;;;;;;5.70;1.77;;;;;;;-146.48;100.00;-16317.56;5324813;28;20023;-75
2022/10/23 02:04:07;;;;;;;8.38;2.10;;;;;;;-146.48;100.00;-16317.56;5325674;28;20049;-75
2022/10/23 02:06:38;;;;;;;8.98;2.45;;;;;;;-146.48;100.00;-16317.56;5324239;28;20028;-75
2022/10/23 02:09:10;;;;;;;6.50;1.98;;;;;;;-146.48;100.00;-16317.56;5325561;28;20034;-74
2022/10/23 02:11:52;;;;;;;5.70;2.30;;;;;;;-146.48;100.00;-16317.56;5324828;28;20026;-75
2022/10/23 02:14:49;;;;;;;7.57;2.25;;;;;;;-146.48;100.00;-16317.56;5324365;28;20023;-75
2022/10/23 02:17:33;;;;;;;4.80;2.25;;;;;;;-146.48;100.00;-16317.56;5325237;28;20059;-75
2022/10/23 02:20:27;;;;;;;10.70;2.60;;;;;;;-146.48;100.00;-16317.56;5324701;27;20026;-75
2022/10/23 02:23:07;;;;;;;9.57;2.97;;;;;;;-146.48;100.00;-16317.56;5325390;28;20099;-74
2022/10/23 02:25:48;;;;;;;7.30;2.22;;;;;;;-146.48;100.00;-16317.56;5324586;28;20034;-76
2022/10/23 02:28:25;;;;;;;6.65;2.90;;;;;;;-146.48;100.00;-16317.56;5324266;28;20047;-75
2022/10/23 02:30:58;;;;;;;10.45;2.50;;;;;;;-146.48;100.00;-16317.56;5324943;28;20080;-73
2022/10/23 02:33:31;;;;;;;5.40;2.60;;;;;;;-146.48;100.00;-16317.56;5324477;28;20024;-74
2022/10/23 02:36:06;;;;;;;5.07;2.30;;;;;;;-146.48;100.00;-16317.56;5324133;28;20019;-74
2022/10/23 02:38:40;;;;;;;8.00;2.70;;;;;;;-146.48;100.00;-16317.56;5323386;28;20035;-74
2022/10/23 02:42:02;;;;;;;7.45;2.88;;;;;;;-146.48;100.00;-16317.56;5324369;28;20031;-75
2022/10/23 02:44:55;;;;;;;5.93;1.90;;;;;;;-146.48;100.00;-16317.56;5258707;28;20037;-75
2022/10/23 02:47:35;;;;;;;7.72;2.50;;;;;;;-146.48;100.00;-16317.56;5258797;28;20107;-74
2022/10/23 02:50:32;;;;;;;12.93;2.63;;;;;;;-146.48;100.00;-16317.56;5307952;28;20479;-74
2022/10/23 02:53:19;;;;;;;7.18;2.67;;;;;;;-146.48;100.00;-16296.47;5324952;28;20359;-74
2022/10/23 02:56:17;;;;;;;7.72;2.38;;;;;;;-146.48;100.00;-16317.56;5323448;28;20429;-75
2022/10/23 02:59:00;;;;;;;6.78;2.78;;;;;;;-146.48;100.00;-16310.22;5323888;28;20024;-75
2022/10/23 03:01:41;;;;;;;5.97;2.30;;;;;;;-146.48;100.00;-16276.81;5324388;28;20028;-75
2022/10/23 03:04:14;;;;;;;5.85;2.33;;;;;;;-146.48;100.00;-16257.16;5323874;28;20027;-75
2022/10/23 03:06:47;;;;;;;7.22;2.45;;;;;;;-146.48;100.00;-16257.16;5323989;28;20047;-75
2022/10/23 03:09:19;;;;;;;7.28;2.45;;;;;;;-146.48;100.00;-16223.75;5323510;28;20055;-75
2022/10/23 03:11:50;;;;;;;7.05;3.17;;;;;;;-146.48;100.00;-16208.03;5324037;28;20093;-75
2022/10/23 03:14:21;;;;;;;10.75;3.33;;;;;;;-146.48;100.00;-16237.50;5324617;28;20133;-74
2022/10/23 03:16:53;;;;;;;5.50;2.55;;;;;;;-146.48;100.00;-16184.47;5323077;28;20031;-75
2022/10/23 03:19:24;;;;;;;5.03;2.80;;;;;;;-146.48;100.00;-16204.13;5324038;28;20032;-75
2022/10/23 03:21:56;;;;;;;6.38;2.80;;;;;;;-146.48;100.00;-16162.84;5323870;28;20024;-75
2022/10/23 03:24:27;;;;;;;6.82;2.80;;;;;;;-146.48;100.00;-16204.13;5322735;28;20016;-75
2022/10/23 03:26:58;;;;;;;7.07;3.60;;;;;;;-146.48;100.00;-16139.28;5324218;28;20479;-74
2022/10/23 03:29:30;;;;;;;10.70;3.00;;;;;;;-146.48;100.00;-16031.19;5323626;28;20055;-75
2022/10/23 03:32:01;;;;;;;8.25;3.08;;;;;;;-146.48;100.00;-16037.09;5323524;28;20023;-75
2022/10/23 03:34:33;;;;;;;9.95;4.18;;;;;;;-146.48;100.00;-15986.00;5323529;28;20024;-75
2022/10/23 03:37:04;;;;;;;5.22;2.45;;;;;;;-146.48;100.00;-16048.88;5324133;28;20032;-76
2022/10/23 03:39:36;;;;;;;5.57;2.85;;;;;;;-146.48;100.00;-16009.59;5322658;28;20462;-74
2022/10/23 03:42:07;;;;;;;9.50;2.88;;;;;;;-146.48;100.00;-15995.84;5324275;28;20390;-74
2022/10/23 03:44:38;;;;;;;6.40;2.80;;;;;;;-146.48;100.00;-15960.47;5322904;28;20106;-74
2022/10/23 03:47:10;;;;;;;5.57;2.78;;;;;;;-146.48;100.00;-15966.38;5323989;28;20023;-75
2022/10/23 03:49:42;;;;;;;6.63;3.05;;;;;;;-146.48;100.00;-15923.13;5323500;28;20114;-73
2022/10/23 03:52:13;;;;;;;5.57;2.88;;;;;;;-146.48;100.00;-15956.53;5327607;28;20110;-74
2022/10/23 03:54:44;;;;;;;11.88;3.85;;;;;;;-146.48;100.00;-15999.75;5327765;28;20063;-74
2022/10/23 03:57:16;;;;;;;5.57;2.90;;;;;;;-146.48;100.00;-15995.84;5328061;28;20028;-73
2022/10/23 03:59:47;;;;;;;7.57;3.00;;;;;;;-146.48;100.00;-15905.44;5326823;28;20038;-74
2022/10/23 04:02:18;;;;;;;7.60;3.10;;;;;;;-146.48;100.00;-15942.78;5328133;28;20020;-74
2022/10/23 04:04:49;;;;;;;9.57;3.40;;;;;;;-146.48;100.00;-15889.72;5327403;28;20036;-73
2022/10/23 04:07:21;;;;;;;7.20;3.70;;;;;;;-146.48;100.00;-15964.41;5327220;28;20525;-73
2022/10/23 04:09:52;;;;;;;10.88;3.17;;;;;;;-146.48;100.00;-15944.75;5327288;28;20059;-74
2022/10/23 04:12:23;;;;;;;7.55;3.13;;;;;;;-146.48;100.00;-15889.72;5327607;28;20027;-74
2022/10/23 04:14:54;;;;;;;8.70;2.63;;;;;;;-146.48;100.00;-15773.78;5326705;28;20023;-74
2022/10/23 04:17:26;;;;;;;14.05;3.05;;;;;;;-146.48;100.00;-15756.09;5327164;28;20439;-76
2022/10/23 04:19:57;;;;;;;4.25;2.30;;;;;;;-146.48;100.00;-15931.00;5326824;28;20023;-73
2022/10/23 04:22:28;;;;;;;6.65;2.45;;;;;;;-146.48;100.00;-15980.13;5326740;28;20023;-74
2022/10/23 04:25:00;;;;;;;6.30;3.33;;;;;;;-146.48;100.00;-15801.31;5327705;28;20034;-74
2022/10/23 04:27:33;;;;;;;6.97;2.90;;;;;;;-146.48;100.00;-15779.69;5326086;28;20044;-73
2022/10/23 04:30:05;;;;;;;7.90;2.88;;;;;;;-146.48;100.00;-15758.06;5327763;28;20046;-73
2022/10/23 04:32:36;;;;;;;7.15;2.45;;;;;;;-146.48;100.00;-15771.81;5326910;28;20020;-74
2022/10/23 04:35:07;;;;;;;5.03;2.60;;;;;;;-146.48;100.00;-15706.97;5326613;28;20027;-73
2022/10/23 04:37:39;;;;;;;5.90;2.67;;;;;;;-146.48;100.00;-15781.66;5326862;28;20450;-74
2022/10/23 04:40:10;;;;;;;6.80;3.20;;;;;;;-146.48;100.00;-15779.69;5327474;28;20035;-74
2022/10/23 04:42:42;;;;;;;7.05;2.70;;;;;;;-146.48;100.00;-15763.97;5325902;28;20024;-74
2022/10/23 04:45:13;;;;;;;5.70;2.70;;;;;;;-146.48;100.00;-15754.16;5327185;28;20363;-74
2022/10/23 04:47:44;;;;;;;7.55;3.22;;;;;;;-146.48;100.00;-15777.72;5325893;28;20211;-74
2022/10/23 04:50:16;;;;;;;6.90;3.17;;;;;;;-146.48;100.00;-15720.75;5327378;28;20024;-76
2022/10/23 04:52:47;;;;;;;4.57;2.47;;;;;;;-146.48;100.00;-15754.16;5326433;28;20103;-74
2022/10/23 04:55:19;;;;;;;6.30;2.58;;;;;;;-146.48;100.00;-15746.28;5326250;28;20479;-74
2022/10/23 04:57:51;;;;;;;7.55;3.03;;;;;;;-146.48;100.00;-15754.16;5326232;28;20031;-73
2022/10/23 05:00:22;;;;;;;4.70;2.33;;;;;;;-146.48;100.00;-15705.03;5327150;28;20049;-74
2022/10/23 05:02:54;;;;;;;6.72;2.35;;;;;;;-146.48;100.00;-15748.25;5324740;28;20058;-73
2022/10/23 05:05:25;;;;;;;6.93;2.45;;;;;;;-146.48;100.00;-15879.91;5326561;28;20024;-74
2022/10/23 05:07:56;;;;;;;5.50;2.80;;;;;;;-146.48;100.00;-15791.47;5326731;28;20034;-74
2022/10/23 05:10:28;;;;;;;5.43;2.22;;;;;;;-146.48;100.00;-15754.16;5325259;28;20521;-74
2022/10/23 05:13:00;;;;;;;7.38;3.17;;;;;;;-146.48;100.00;-15722.69;5326779;28;20467;-74
2022/10/23 05:15:32;;;;;;;3.97;2.42;;;;;;;-146.48;100.00;-15718.78;5326051;28;20097;-74
2022/10/23 05:18:14;;;;;;;3.80;1.83;;;;;;;-146.48;100.00;-15754.16;5325832;28;20104;-74
2022/10/23 05:20:48;;;;;;;9.07;2.17;;;;;;;-146.48;100.00;-15789.50;5325895;28;20111;-74
2022/10/23 05:23:23;;;;;;;5.38;2.47;;;;;;;-146.48;100.00;-15901.53;5325861;28;20043;-74
2022/10/23 05:25:54;;;;;;;4.63;2.35;;;;;;;-146.48;100.00;-15754.16;5326045;28;20070;-74
2022/10/23 05:28:26;;;;;;;5.00;1.83;;;;;;;-146.48;100.00;-15773.78;5325599;28;20514;-74
2022/10/23 05:30:59;;;;;;;6.97;2.20;;;;;;;-146.48;100.00;-15799.34;5325504;28;20028;-75
2022/10/23 05:33:33;;;;;;;5.78;2.58;;;;;;;-146.48;100.00;-15775.75;5325670;28;20031;-75
2022/10/23 05:36:05;;;;;;;5.07;2.30;;;;;;;-146.48;100.00;-15754.16;5326090;28;20055;-74
2022/10/23 05:38:36;;;;;;;3.67;1.83;;;;;;;-146.48;100.00;-15883.84;5324752;28;20449;-73
2022/10/23 05:41:07;;;;;;;5.28;2.28;;;;;;;-146.48;100.00;-15793.44;5326007;28;20028;-74
2022/10/23 05:43:39;;;;;;;5.65;2.15;;;;;;;-146.48;100.00;-15720.75;5325553;28;20028;-74
2022/10/23 05:46:10;;;;;;;5.57;1.55;;;;;;;-146.48;100.00;-15754.16;5325361;28;20032;-74
2022/10/23 05:48:42;;;;;;;4.93;1.70;;;;;;;-146.48;100.00;-15799.34;5325556;28;20035;-74
2022/10/23 05:51:19;;;;;;;4.70;1.80;;;;;;;-146.48;100.00;-15785.59;5325125;28;20012;-74
2022/10/23 05:53:51;;;;;;;6.75;1.63;;;;;;;-146.48;100.00;-15897.59;5325312;28;20027;-73
2022/10/23 05:56:23;;;;;;;7.68;1.90;;;;;;;-146.48;100.00;-15754.16;5325597;28;20024;-75
2022/10/23 05:58:54;;;;;;;4.53;1.92;;;;;;;-146.48;100.00;-15697.16;5324694;28;20474;-73
2022/10/23 06:01:25;;;;;;;5.47;1.70;;;;;;;-146.48;100.00;-15555.66;5325096;28;20019;-74
2022/10/23 06:03:58;;;;;;;4.43;2.00;;;;;;;-146.48;100.00;-15659.81;5325518;28;20032;-74
2022/10/23 06:06:29;;;;;;;4.40;1.42;;;;;;;-146.48;100.00;-15679.47;5324033;28;20028;-74
2022/10/23 06:09:02;;;;;;;3.92;1.67;;;;;;;-146.48;100.00;-15724.66;5325378;28;20023;-73
2022/10/23 06:11:33;;;;;;;6.97;2.65;;;;;;;-146.48;100.00;-15706.97;5324846;28;20034;-74
2022/10/23 06:14:06;;;;;;;6.05;1.85;;;;;;;-146.48;100.00;-15679.47;5324522;28;20095;-74
2022/10/23 06:16:37;;;;;;;4.75;1.65;;;;;;;-146.48;100.00;-15701.09;5324469;28;20028;-74
2022/10/23 06:19:10;;;;;;;5.43;1.80;;;;;;;-146.48;100.00;-15695.19;5324666;28;20502;-75
2022/10/23 06:21:41;;;;;;;4.13;1.33;;;;;;;-146.48;100.00;-15502.59;5324260;28;20055;-74
2022/10/23 06:24:13;;;;;;;8.75;1.50;;;;;;;-146.48;100.00;-15697.16;5324627;28;20066;-75
2022/10/23 06:26:44;;;;;;;5.68;1.50;;;;;;;-146.48;100.00;-15750.22;5323426;28;20384;-74
2022/10/23 06:29:15;;;;;;;6.43;1.77;;;;;;;-146.48;100.00;-15705.03;5324740;28;20089;-74
2022/10/23 06:31:47;;;;;;;3.67;1.80;;;;;;;-146.48;100.00;-15885.81;5324407;28;20024;-76
2022/10/23 06:34:18;;;;;;;8.68;1.70;;;;;;;-146.48;100.00;-15738.44;5323975;28;20024;-76
2022/10/23 06:36:49;;;;;;;4.07;1.40;;;;;;;-146.48;100.00;-15703.06;5324494;28;20378;-75
2022/10/23 06:39:21;;;;;;;5.10;1.88;;;;;;;-146.48;100.00;-15728.59;5324894;28;20058;-75
2022/10/23 06:41:52;;;;;;;5.10;1.83;;;;;;;-146.48;100.00;-15722.69;5323352;28;20040;-75
2022/10/23 06:44:23;;;;;;;5.65;1.60;;;;;;;-146.48;100.00;-15809.16;5324186;28;20055;-75
2022/10/23 06:46:54;;;;;;;5.72;1.40;;;;;;;-146.48;100.00;-15754.16;5324408;28;20030;-75
2022/10/23 06:49:26;;;;;;;6.82;1.35;;;;;;;-146.48;100.00;-15754.16;5323070;28;20474;-75
2022/10/23 06:51:57;;;;;;;6.28;1.50;;;;;;;-146.48;100.00;-15697.16;5324648;28;20499;-75
2022/10/23 06:54:28;;;;;;;4.68;1.52;;;;;;;-146.48;100.00;-15748.25;5323086;28;20042;-76
2022/10/23 06:57:00;;;;;;;6.28;1.10;;;;;;;-146.48;100.00;-15687.34;5324728;28;20035;-75
2022/10/23 06:59:31;;;;;;;3.90;1.10;;;;;;;-146.48;100.00;-15655.88;5323944;28;20027;-75
2022/10/23 07:02:02;;;;;;;3.85;1.30;;;;;;;-146.48;100.00;-15657.84;5323708;28;20020;-75
2022/10/23 07:04:33;;;;;;;6.07;1.50;;;;;;;-146.48;100.00;-15551.75;5323661;28;20027;-74
2022/10/23 07:07:05;;;;;;;4.07;1.30;;;;;;;-146.48;100.00;-15549.78;5324156;28;20028;-73
2022/10/23 07:09:37;;;;;;;3.67;1.15;;;;;;;-146.48;100.00;-15457.41;5323081;28;20036;-74
2022/10/23 07:12:08;;;;;;;6.60;1.48;;;;;;;-146.48;100.00;-15251.06;5324243;28;20126;-74
2022/10/23 07:14:39;;;;;;;5.15;1.55;;;;;;;-146.48;100.00;-15258.91;5323660;28;20019;-74
2022/10/23 07:17:11;;;;;;;4.65;1.27;;;;;;;-146.48;100.00;-15416.16;5323208;28;20047;-74
2022/10/23 07:19:42;;;;;;;6.80;1.33;;;;;;;-146.48;100.00;-15473.13;5323233;28;20106;-74
2022/10/23 07:22:13;;;;;;;5.05;1.20;;;;;;;-146.48;100.00;-15410.25;5324064;28;20032;-74
2022/10/23 07:24:44;;;;;;;4.45;1.10;;;;;;;-146.48;100.00;-15376.84;5322389;28;20024;-75
2022/10/23 07:27:16;;;;;;;3.67;1.00;;;;;;;-146.48;100.00;-15225.50;5323897;28;20043;-75
2022/10/23 07:29:51;;;;;;;6.03;1.02;;;;;;;-146.48;100.00;-15414.19;5322687;28;20035;-75
2022/10/23 07:32:23;;;;;;;4.40;1.00;;;;;;;-146.48;100.00;-15278.56;5324057;28;20027;-77
2022/10/23 07:34:54;;;;;;;3.70;0.80;;;;;;;-146.48;100.00;-15298.22;5323623;28;20027;-73
2022/10/23 07:37:27;;;;;;;3.10;0.90;;;;;;;-146.48;100.00;-15215.69;5322426;28;20455;-74
2022/10/23 07:39:59;;;;;;;4.82;0.90;;;;;;;-146.48;100.00;-15221.59;5323592;28;20106;-74
2022/10/23 07:42:31;;;;;;;3.53;1.45;;;;;;;-146.48;100.00;-15247.13;5322736;28;20122;-74
2022/10/23 07:45:03;;;;;;;6.20;1.10;;;;;;;-146.48;100.00;-15170.47;5322959;28;20038;-74
2022/10/23 07:47:34;;;;;;;3.97;1.17;;;;;;;-146.48;100.00;-15156.72;5322898;28;20445;-74
2022/10/23 07:50:06;;;;;;;2.88;0.80;;;;;;;-146.48;100.00;-15156.72;5323772;28;20103;-74
2022/10/23 07:52:37;;;;;;;3.08;1.00;;;;;;;-146.48;100.00;-15133.13;5322268;28;20105;-74
2022/10/23 07:55:09;;;;;;;5.38;0.85;;;;;;;-146.48;100.00;-15125.28;5323443;28;20047;-74
2022/10/23 07:57:40;;;;;;;3.25;1.05;;;;;;;-146.48;100.00;-15058.47;5322224;28;20386;-73
2022/10/23 08:00:12;;;;;;;4.20;1.13;;;;;;;-146.48;100.00;-15133.13;5323436;28;20030;-74
2022/10/23 08:02:43;;;;;;;4.97;0.90;;;;;;;-146.48;100.00;-15158.69;5322809;28;20031;-73
2022/10/23 08:05:18;;;;;;;4.88;1.05;;;;;;;-146.48;100.00;-15170.47;5322541;28;20020;-74
2022/10/23 08:07:49;;;;;;;7.68;1.00;;;;;;;-146.48;100.00;-15148.88;5322679;28;20079;-73
2022/10/23 08:10:21;;;;;;;5.40;1.45;;;;;;;-146.48;100.00;-15152.78;5323221;28;20106;-73
2022/10/23 08:12:52;;;;;;;4.45;0.98;;;;;;;-146.48;100.00;-15046.66;5321969;28;20032;-74
2022/10/23 08:15:23;;;;;;;4.38;2.13;;;;;;;-146.48;100.00;-14952.31;5323122;28;20023;-74
2022/10/23 08:17:54;;;;;;;3.22;1.00;;;;;;;-146.48;100.00;-14999.50;5322877;28;20024;-74
2022/10/23 08:20:26;;;;;;;4.22;1.00;;;;;;;-146.48;100.00;-14962.16;5322227;28;20026;-75
2022/10/23 08:22:57;;;;;;;9.80;1.38;;;;;;;-146.48;100.00;-14958.22;5323483;28;20047;-74
2022/10/23 08:25:28;;;;;;;5.93;0.82;;;;;;;-146.48;100.00;-14964.13;5322694;28;20031;-74
2022/10/23 08:28:00;;;;;;;6.45;1.08;;;;;;;-146.48;100.00;-14873.72;5322317;28;20043;-73
2022/10/23 08:30:31;;;;;;;4.28;1.02;;;;;;;-146.48;100.00;-14702.69;5322399;28;20168;-73
2022/10/23 08:33:04;;;;;;;2.92;1.10;;;;;;;-146.48;100.00;-14895.31;5322587;28;20028;-72
2022/10/23 08:35:37;;;;;;;3.97;1.10;;;;;;;-146.48;100.00;-14783.28;5322595;28;20028;-73
2022/10/23 08:38:09;;;;;;;5.45;1.40;;;;;;;-146.48;100.00;-14903.19;5325429;28;20028;-73
2022/10/23 08:40:46;;;;;;;5.03;1.35;;;;;;;-146.48;100.00;-14716.47;5325522;28;20036;-74
2022/10/23 08:43:38;;;;;;;2.65;1.33;;;;;;;-146.48;100.00;-14708.59;5326922;28;20080;-74
2022/10/23 08:46:16;;;;;;;4.70;1.38;;;;;;;-146.48;100.00;-14714.50;5326985;28;20497;-73
2022/10/23 08:48:59;;;;;;;8.18;1.23;;;;;;;-146.48;100.00;-14677.16;5324584;28;20042;-72
2022/10/23 08:51:39;;;;;;;4.25;1.10;;;;;;;-146.48;100.00;-14496.31;5326181;28;20038;-73
2022/10/23 08:54:18;;;;;;;5.00;1.20;;;;;;;-146.48;100.00;-14504.19;5326042;28;20492;-73
2022/10/23 08:57:13;;;;;;;5.18;1.30;;;;;;;-146.48;100.00;-14622.13;5325793;28;20020;-72
2022/10/23 08:59:53;;;;;;;2.83;1.30;;;;;;;-146.48;100.00;-14718.44;5326053;28;20036;-74
2022/10/23 09:02:34;;;;;;;4.15;1.08;;;;;;;-146.48;100.00;-14417.69;5325533;28;20048;-73
2022/10/23 09:05:32;;;;;;;7.18;1.20;;;;;;;-146.48;100.00;-14445.22;5326400;28;20070;-73
2022/10/23 09:08:28;;;;;;;5.05;1.30;;;;;;;-146.48;100.00;-14447.16;5324965;28;20360;-73
2022/10/23 09:11:03;;;;;;;5.25;1.20;;;;;;;-146.48;100.00;-14394.09;5326653;28;20024;-74
2022/10/23 09:13:43;;;;;;;6.65;0.98;;;;;;;-146.48;100.00;-14217.19;5325706;28;20030;-73
2022/10/23 09:16:31;;;;;;;3.33;1.10;;;;;;;-146.48;100.00;-14280.09;5325444;28;20339;-73
2022/10/23 09:19:11;;;;;;;4.68;0.95;;;;;;;-146.48;100.00;-14146.41;5325799;27;20036;-73
2022/10/23 09:21:50;;;;;;;2.17;0.90;;;;;;;-146.48;100.00;-14171.97;5325106;28;20438;-73
2022/10/23 09:24:25;;;;;;;5.57;1.20;;;;;;;-146.48;100.00;-14050.06;5325013;28;20102;-73
2022/10/23 09:26:56;;;;;;;4.85;1.13;;;;;;;-146.48;100.00;-13993.06;5325689;28;20417;-72
2022/10/23 09:29:34;;;;;;;4.47;1.17;;;;;;;-146.48;100.00;-13796.47;5324551;28;20028;-73
2022/10/23 09:32:06;;;;;;;3.97;1.00;;;;;;;-146.48;100.00;-13759.09;5326015;28;20039;-73
2022/10/23 09:34:52;;;;;;;4.00;1.17;;;;;;;-146.48;100.00;-13778.78;5325286;28;20420;-73
2022/10/23 09:37:25;;;;;;;3.80;0.85;;;;;;;-146.48;100.00;-13741.41;5324876;28;20039;-73
2022/10/23 09:40:11;;;;;;;4.63;1.00;;;;;;;-146.48;100.00;-13924.25;5325450;28;20102;-73
2022/10/23 09:42:57;;;;;;;3.45;1.08;;;;;;;-146.48;100.00;-13894.75;5325006;28;20031;-73
2022/10/23 09:45:34;;;;;;;4.13;1.08;;;;;;;-146.48;100.00;-13759.09;5324848;28;20065;-73
2022/10/23 09:48:17;;;;;;;5.90;1.30;;;;;;;-146.48;100.00;-13743.38;5325530;28;20479;-74
2022/10/23 09:50:53;;;;;;;4.18;1.00;;;;;;;-146.48;100.00;-13649.00;5324425;28;20035;-73
2022/10/23 09:53:37;;;;;;;6.63;1.65;;;;;;;-146.48;100.00;-13772.88;5324922;28;20019;-74
2022/10/23 09:56:28;;;;;;;3.63;1.05;;;;;;;-146.48;100.00;-13704.06;5325585;28;20151;-71
2022/10/23 09:59:11;;;;;;;3.85;0.98;;;;;;;-146.48;100.00;-13721.75;5324873;28;20471;-72
2022/10/23 10:02:03;;;;;;;3.28;1.00;;;;;;;-146.48;100.00;-13741.41;5325068;28;20063;-71
2022/10/23 10:04:38;;;;;;;4.20;0.88;;;;;;;-146.48;100.00;-13489.75;5323632;28;20036;-72
2022/10/23 10:07:35;;;;;;;5.53;1.25;;;;;;;-146.48;100.00;-13452.41;5325451;28;20057;-72
2022/10/23 10:10:14;;;;;;;4.10;1.02;;;;;;;-146.48;100.00;-13415.03;5322401;28;20039;-72
2022/10/23 10:12:51;;;;;;;;;;;;;;;-146.48;100.00;-13432.72;5324680;28;20031;-72
2022/10/23 10:15:42;;;;;;;4.13;0.90;;;;;;;-146.48;100.00;-13460.25;5325298;28;19918;-72
2022/10/23 10:18:49;;;;;;;2.55;0.70;;;;;;;-146.48;100.00;-13491.72;5325126;28;20085;-73
2022/10/23 10:21:27;;;;;;;5.65;0.88;;;;;;;-146.48;100.00;-13454.34;5325399;28;20096;-73
2022/10/23 10:24:10;;;;;;;5.97;1.00;;;;;;;-146.48;100.00;-13363.91;5324926;28;20019;-73
2022/10/23 10:27:08;;;;;;;3.17;0.80;;;;;;;-146.48;100.00;-13452.41;5323644;28;20269;-73
2022/10/23 10:30:09;;;;;;;5.10;0.95;;;;;;;-146.48;100.00;-13432.72;5324617;28;20031;-72
2022/10/23 10:33:02;;;;;;;4.05;0.80;;;;;;;-146.48;100.00;-13629.34;5323632;28;20028;-72
2022/10/23 10:36:01;;;;;;;2.58;0.77;;;;;;;-146.48;100.00;-13489.75;5324473;28;20027;-72
2022/10/23 10:38:47;;;;;;;9.02;1.15;;;;;;;-146.48;100.00;-13489.75;5324306;28;20039;-72
2022/10/23 10:41:31;;;;;;;4.10;1.08;;;;;;;-146.48;100.00;-13511.38;5324272;28;20454;-73
2022/10/23 10:44:12;;;;;;;2.75;0.73;;;;;;;-146.48;100.00;-13269.53;5324665;28;20024;-73
2022/10/23 10:47:04;;;;;;;4.80;0.70;;;;;;;-146.48;100.00;-13033.56;5323575;28;20035;-73
2022/10/23 10:49:48;;;;;;;2.58;0.70;;;;;;;-146.48;100.00;-12734.66;5324169;28;20023;-73
2022/10/23 10:52:51;;;;;;;4.38;0.80;;;;;;;-146.48;100.00;-12742.53;5324657;28;20478;-73
2022/10/23 10:55:34;;;;;;;3.08;0.70;;;;;;;-146.48;100.00;-12494.72;5324005;28;20520;-73
2022/10/23 10:58:40;;;;;;;3.08;0.80;;;;;;;-146.48;100.00;-12431.78;5324100;28;20494;-70
2022/10/23 11:01:39;;;;;;;5.68;0.98;;;;;;;-146.48;100.00;-11908.59;5271465;28;20071;-73
2022/10/23 11:04:21;;;;;;;2.42;0.80;;;;;;;-146.48;100.00;-11261.41;5309276;28;20050;-73
2022/10/23 11:06:55;;;;;;;5.63;1.35;;;;;;;-146.48;100.00;-10846.25;5320114;28;20016;-71
2022/10/23 11:09:28;;;;;;;2.42;0.65;;;;;;;-146.48;100.00;-10157.56;5321144;28;20031;-73
2022/10/23 11:11:59;;;;;;;3.38;0.70;;;;;;;-146.48;100.00;-8852.59;5323370;28;20523;-73
2022/10/23 11:14:32;;;;;;;3.05;0.70;;;;;;;-146.48;100.00;-8598.66;5322703;28;20153;-73
2022/10/23 11:17:26;;;;;;;1.83;0.60;;;;;;;-146.48;100.00;-8151.72;5322811;28;20023;-72
2022/10/23 11:19:57;;;;;;;4.00;0.80;;;;;;;-146.48;100.00;-7974.53;5322879;28;20432;-72
2022/10/23 11:22:36;;;;;;;3.85;1.13;;;;;;;-146.48;100.00;-7147.44;5321536;28;20031;-71
2022/10/23 11:25:17;;;;;;;4.00;0.85;;;;;;;-146.48;100.00;-6692.47;5323028;28;20148;-73
2022/10/23 11:28:05;;;;;;;3.88;0.80;;;;;;;-146.48;100.00;-6123.19;5321959;28;20039;-73
2022/10/23 11:31:07;;;;;;;2.47;0.85;;;;;;;-146.48;100.00;-6318.22;5321053;28;20043;-73
2022/10/23 11:34:26;;;;;;;2.17;0.65;;;;;;;-146.48;100.00;-5953.75;5323318;28;20097;-73
2022/10/23 11:37:07;;;;;;;3.45;0.70;;;;;;;-146.48;100.00;-5587.31;5322934;28;20473;-74
2022/10/23 11:39:39;;;;;;;4.45;0.95;;;;;;;-146.48;100.00;-5106.53;5323111;28;20039;-74
2022/10/23 11:42:14;;;;;;;4.30;0.80;;;;;;;-146.48;100.00;-4923.28;5323629;28;20375;-72
2022/10/23 11:44:46;;;;;;;2.75;0.50;;;;;;;-146.48;100.00;-5063.19;5322415;28;20364;-72